DAL218 KJFK-EKCH
Flight info
| Callsign | DAL218 |
|---|---|
| Flight time | N/A |
| Altitude | 37000 |
| Route | GREKI DCT JUDDS DCT MARTN DCT TOPPS N635A RIKAL/M081F380 NATS NETKI/N0475F390 DCT NIBOG DCT MAC DCT SURAT DCT PETIL DCT TESPI |
| Aircraft | A339/H-SADE1E2E3GHIJ3J5M1P2RWXY/LB2D1 |
Departure
| Time | 2026-05-08 01:35 |
|---|---|
| Airport | John F. Kennedy International Airport (KJFK) |
Arrival
| Time | N/A |
|---|---|
| Airport | Copenhagen Kastrup Airport (EKCH) |
| Time | Latitude | Longitude | Altitude | Speed | Heading |
|---|---|---|---|---|---|
| 2026-05-08 01:17 | 40.64043 | -73.78279 | 26 ft | 0 kts | 54° |
| 2026-05-08 01:22 | 40.64041 | -73.78282 | 32 ft | 2 kts | 54° |
| 2026-05-08 01:22 | 40.64033 | -73.78297 | 32 ft | 2 kts | 60° |
| 2026-05-08 01:22 | 40.64025 | -73.78313 | 32 ft | 2 kts | 70° |
| 2026-05-08 01:23 | 40.64020 | -73.78331 | 32 ft | 2 kts | 92° |
| 2026-05-08 01:23 | 40.64020 | -73.78343 | 32 ft | 0 kts | 107° |
| 2026-05-08 01:23 | 40.64019 | -73.78345 | 32 ft | 0 kts | 118° |
| 2026-05-08 01:23 | 40.64018 | -73.78347 | 32 ft | 0 kts | 128° |
| 2026-05-08 01:24 | 40.64019 | -73.78348 | 32 ft | 0 kts | 128° |
| 2026-05-08 01:24 | 40.64020 | -73.78349 | 25 ft | 0 kts | 128° |
| 2026-05-08 01:24 | 40.64018 | -73.78347 | 32 ft | 1 kts | 128° |
| 2026-05-08 01:25 | 40.64025 | -73.78358 | 25 ft | 0 kts | 128° |
| 2026-05-08 01:26 | 40.64003 | -73.78355 | 25 ft | 7 kts | 169° |
| 2026-05-08 01:26 | 40.63952 | -73.78333 | 26 ft | 8 kts | 153° |
| 2026-05-08 01:26 | 40.63940 | -73.78322 | 31 ft | 2 kts | 148° |
| 2026-05-08 01:27 | 40.63892 | -73.78298 | 26 ft | 11 kts | 167° |
| 2026-05-08 01:28 | 40.63799 | -73.78282 | 26 ft | 15 kts | 172° |
| 2026-05-08 01:28 | 40.63696 | -73.78266 | 26 ft | 11 kts | 173° |
| 2026-05-08 01:28 | 40.63622 | -73.78255 | 27 ft | 11 kts | 175° |
| 2026-05-08 01:28 | 40.63549 | -73.78273 | 26 ft | 11 kts | 202° |
| 2026-05-08 01:29 | 40.63481 | -73.78323 | 27 ft | 9 kts | 205° |
| 2026-05-08 01:29 | 40.63430 | -73.78310 | 28 ft | 7 kts | 147° |
| 2026-05-08 01:29 | 40.63409 | -73.78251 | 28 ft | 10 kts | 115° |
| 2026-05-08 01:29 | 40.63360 | -73.78133 | 27 ft | 17 kts | 119° |
| 2026-05-08 01:30 | 40.63330 | -73.77988 | 27 ft | 17 kts | 92° |
| 2026-05-08 01:30 | 40.63366 | -73.77845 | 26 ft | 17 kts | 57° |
| 2026-05-08 01:30 | 40.63461 | -73.77744 | 26 ft | 18 kts | 31° |
| 2026-05-08 01:30 | 40.63576 | -73.77654 | 29 ft | 21 kts | 31° |
| 2026-05-08 01:31 | 40.63702 | -73.77556 | 28 ft | 22 kts | 30° |
| 2026-05-08 01:31 | 40.63844 | -73.77445 | 30 ft | 26 kts | 31° |
| 2026-05-08 01:31 | 40.64002 | -73.77321 | 26 ft | 27 kts | 31° |
| 2026-05-08 01:31 | 40.64158 | -73.77200 | 27 ft | 26 kts | 31° |
| 2026-05-08 01:32 | 40.64313 | -73.77078 | 26 ft | 26 kts | 31° |
| 2026-05-08 01:32 | 40.64471 | -73.76990 | 29 ft | 19 kts | 9° |
| 2026-05-08 01:32 | 40.64594 | -73.76921 | 30 ft | 19 kts | 31° |
| 2026-05-08 01:32 | 40.64710 | -73.76830 | 29 ft | 20 kts | 31° |
| 2026-05-08 01:33 | 40.64826 | -73.76740 | 26 ft | 19 kts | 30° |
| 2026-05-08 01:33 | 40.64942 | -73.76650 | 27 ft | 20 kts | 31° |
| 2026-05-08 01:33 | 40.65060 | -73.76557 | 27 ft | 16 kts | 31° |
| 2026-05-08 01:33 | 40.65095 | -73.76491 | 27 ft | 8 kts | 77° |
| 2026-05-08 01:34 | 40.65077 | -73.76417 | 28 ft | 10 kts | 113° |
| 2026-05-08 01:34 | 40.65030 | -73.76364 | 28 ft | 9 kts | 175° |
| 2026-05-08 01:34 | 40.64974 | -73.76392 | 28 ft | 9 kts | 211° |
| 2026-05-08 01:34 | 40.64844 | -73.76497 | 27 ft | 47 kts | 210° |
| 2026-05-08 01:35 | 40.64319 | -73.76902 | 26 ft | 125 kts | 211° |
| 2026-05-08 01:35 | 40.63396 | -73.77624 | 88 ft | 176 kts | 210° |
| 2026-05-08 01:35 | 40.62361 | -73.78445 | 849 ft | 172 kts | 210° |
| 2026-05-08 01:35 | 40.61321 | -73.79255 | 1631 ft | 175 kts | 211° |
| 2026-05-08 01:36 | 40.60241 | -73.80093 | 2242 ft | 189 kts | 211° |
| 2026-05-08 01:36 | 40.59055 | -73.81014 | 2700 ft | 207 kts | 211° |
| 2026-05-08 01:36 | 40.57754 | -73.82026 | 3101 ft | 228 kts | 211° |
| 2026-05-08 01:36 | 40.56331 | -73.83132 | 3498 ft | 246 kts | 211° |
| 2026-05-08 01:37 | 40.54792 | -73.84300 | 3844 ft | 263 kts | 208° |
| 2026-05-08 01:37 | 40.52997 | -73.84869 | 4399 ft | 269 kts | 180° |
| 2026-05-08 01:37 | 40.51180 | -73.84343 | 5075 ft | 271 kts | 155° |
| 2026-05-08 01:37 | 40.49707 | -73.82841 | 5681 ft | 277 kts | 130° |
| 2026-05-08 01:38 | 40.48832 | -73.80579 | 6247 ft | 283 kts | 104° |
| 2026-05-08 01:38 | 40.48775 | -73.77992 | 6810 ft | 288 kts | 77° |
| 2026-05-08 01:38 | 40.49578 | -73.75566 | 7396 ft | 288 kts | 50° |
| 2026-05-08 01:38 | 40.51048 | -73.73827 | 7982 ft | 285 kts | 25° |
| 2026-05-08 01:39 | 40.52830 | -73.72765 | 8595 ft | 285 kts | 15° |
| 2026-05-08 01:39 | 40.54737 | -73.71931 | 9265 ft | 286 kts | 12° |
| 2026-05-08 01:39 | 40.56661 | -73.71168 | 9876 ft | 289 kts | 11° |
| 2026-05-08 01:39 | 40.58586 | -73.70399 | 10289 ft | 300 kts | 11° |
| 2026-05-08 01:40 | 40.60645 | -73.69555 | 10448 ft | 319 kts | 12° |
| 2026-05-08 01:40 | 40.62823 | -73.68637 | 10615 ft | 337 kts | 12° |
| 2026-05-08 01:40 | 40.65092 | -73.67660 | 10969 ft | 347 kts | 13° |
| 2026-05-08 01:40 | 40.67395 | -73.66656 | 11472 ft | 352 kts | 13° |
| 2026-05-08 01:41 | 40.69742 | -73.65630 | 11945 ft | 357 kts | 12° |
| 2026-05-08 01:41 | 40.72121 | -73.64594 | 12454 ft | 363 kts | 12° |
| 2026-05-08 01:41 | 40.74532 | -73.63545 | 12955 ft | 367 kts | 12° |
| 2026-05-08 01:41 | 40.76978 | -73.62483 | 13465 ft | 372 kts | 11° |
| 2026-05-08 01:42 | 40.79450 | -73.61410 | 13956 ft | 376 kts | 11° |
| 2026-05-08 01:42 | 40.81950 | -73.60325 | 14399 ft | 380 kts | 11° |
| 2026-05-08 01:42 | 40.84479 | -73.59228 | 14868 ft | 385 kts | 11° |
| 2026-05-08 01:42 | 40.87038 | -73.58118 | 15329 ft | 389 kts | 11° |
| 2026-05-08 01:43 | 40.89617 | -73.56998 | 15760 ft | 394 kts | 11° |
| 2026-05-08 01:43 | 40.92239 | -73.55861 | 16183 ft | 399 kts | 11° |
| 2026-05-08 01:43 | 40.94889 | -73.54709 | 16617 ft | 403 kts | 11° |
| 2026-05-08 01:43 | 40.97570 | -73.53542 | 17038 ft | 408 kts | 12° |
| 2026-05-08 01:44 | 41.00289 | -73.52359 | 17467 ft | 413 kts | 12° |
| 2026-05-08 01:44 | 41.03031 | -73.51164 | 17868 ft | 418 kts | 12° |
| 2026-05-08 01:44 | 41.05810 | -73.49952 | 18268 ft | 423 kts | 12° |
| 2026-05-08 01:44 | 41.08615 | -73.48727 | 18677 ft | 426 kts | 11° |
| 2026-05-08 01:45 | 41.11435 | -73.47492 | 19141 ft | 428 kts | 11° |
| 2026-05-08 01:45 | 41.14276 | -73.46249 | 19559 ft | 431 kts | 11° |
| 2026-05-08 01:45 | 41.17135 | -73.44997 | 20018 ft | 434 kts | 11° |
| 2026-05-08 01:45 | 41.20010 | -73.43737 | 20453 ft | 437 kts | 11° |
| 2026-05-08 01:46 | 41.22906 | -73.42468 | 20892 ft | 440 kts | 11° |
| 2026-05-08 01:46 | 41.25822 | -73.41188 | 21362 ft | 442 kts | 11° |
| 2026-05-08 01:46 | 41.28758 | -73.39899 | 21792 ft | 446 kts | 11° |
| 2026-05-08 01:46 | 41.31709 | -73.38602 | 22227 ft | 449 kts | 10° |
| 2026-05-08 01:47 | 41.34601 | -73.37329 | 22656 ft | 452 kts | 10° |
| 2026-05-08 01:47 | 41.37600 | -73.36008 | 23093 ft | 455 kts | 10° |
| 2026-05-08 01:47 | 41.40618 | -73.34678 | 23523 ft | 459 kts | 10° |
| 2026-05-08 01:48 | 41.46676 | -73.31728 | 24247 ft | 474 kts | 20° |
| 2026-05-08 01:48 | 41.49488 | -73.29322 | 24628 ft | 487 kts | 33° |
| 2026-05-08 01:48 | 41.51992 | -73.26194 | 25009 ft | 495 kts | 41° |
| 2026-05-08 01:48 | 41.54412 | -73.22910 | 25322 ft | 499 kts | 41° |
| 2026-05-08 01:49 | 41.56864 | -73.19618 | 25674 ft | 501 kts | 40° |
| 2026-05-08 01:49 | 41.59342 | -73.16314 | 26030 ft | 504 kts | 39° |
| 2026-05-08 01:49 | 41.62023 | -73.13414 | 26341 ft | 497 kts | 26° |
| 2026-05-08 01:49 | 41.65089 | -73.11262 | 26697 ft | 486 kts | 13° |
| 2026-05-08 01:50 | 41.68247 | -73.10027 | 27010 ft | 473 kts | 360° |
| 2026-05-08 01:50 | 41.71508 | -73.09678 | 27375 ft | 456 kts | 346° |
| 2026-05-08 01:50 | 41.74583 | -73.10219 | 27727 ft | 438 kts | 333° |
| 2026-05-08 01:50 | 41.77432 | -73.11479 | 28107 ft | 429 kts | 327° |
| 2026-05-08 01:51 | 41.80271 | -73.12816 | 28468 ft | 436 kts | 330° |
| 2026-05-08 01:51 | 41.83197 | -73.13869 | 28816 ft | 446 kts | 335° |
| 2026-05-08 01:51 | 41.86281 | -73.14662 | 29170 ft | 454 kts | 338° |
| 2026-05-08 01:51 | 41.89432 | -73.15284 | 29517 ft | 460 kts | 340° |
| 2026-05-08 01:52 | 41.92613 | -73.15830 | 29855 ft | 463 kts | 340° |
| 2026-05-08 01:52 | 41.95830 | -73.16358 | 30152 ft | 465 kts | 340° |
| 2026-05-08 01:52 | 41.99051 | -73.16888 | 30434 ft | 467 kts | 340° |
| 2026-05-08 01:52 | 42.01196 | -73.17246 | 30609 ft | 469 kts | 340° |
| 2026-05-08 01:53 | 42.04440 | -73.17794 | 30928 ft | 471 kts | 340° |
| 2026-05-08 01:53 | 42.07703 | -73.18350 | 31221 ft | 473 kts | 340° |
| 2026-05-08 01:53 | 42.10971 | -73.18909 | 31507 ft | 475 kts | 340° |
| 2026-05-08 01:53 | 42.14268 | -73.19475 | 31805 ft | 477 kts | 341° |
| 2026-05-08 01:54 | 42.17567 | -73.20041 | 32081 ft | 479 kts | 341° |
| 2026-05-08 01:54 | 42.20887 | -73.20611 | 32352 ft | 481 kts | 341° |
| 2026-05-08 01:54 | 42.24171 | -73.21177 | 32553 ft | 483 kts | 341° |
| 2026-05-08 01:54 | 42.27519 | -73.21753 | 32761 ft | 485 kts | 341° |
| 2026-05-08 01:55 | 42.30871 | -73.22331 | 32954 ft | 487 kts | 341° |
| 2026-05-08 01:55 | 42.34234 | -73.22910 | 33131 ft | 489 kts | 341° |
| 2026-05-08 01:55 | 42.37600 | -73.23489 | 33309 ft | 490 kts | 341° |
| 2026-05-08 01:55 | 42.40989 | -73.24073 | 33497 ft | 491 kts | 341° |
| 2026-05-08 01:56 | 42.44383 | -73.24660 | 33692 ft | 491 kts | 341° |
| 2026-05-08 01:56 | 42.47778 | -73.25249 | 33881 ft | 491 kts | 341° |
| 2026-05-08 01:56 | 42.51215 | -73.25649 | 33989 ft | 504 kts | 349° |
| 2026-05-08 01:56 | 42.54772 | -73.25231 | 34152 ft | 520 kts | 1° |
| 2026-05-08 01:57 | 42.58274 | -73.23956 | 34296 ft | 535 kts | 12° |
| 2026-05-08 01:57 | 42.61689 | -73.21806 | 34452 ft | 548 kts | 23° |
| 2026-05-08 01:57 | 42.64855 | -73.18835 | 34603 ft | 558 kts | 34° |
| 2026-05-08 01:57 | 42.67653 | -73.15131 | 34743 ft | 565 kts | 46° |
| 2026-05-08 01:58 | 42.69921 | -73.10944 | 34875 ft | 570 kts | 57° |
| 2026-05-08 01:58 | 42.71735 | -73.06146 | 35036 ft | 571 kts | 66° |
| 2026-05-08 01:58 | 42.73363 | -73.01219 | 35172 ft | 571 kts | 63° |
| 2026-05-08 01:58 | 42.75223 | -72.96459 | 35310 ft | 570 kts | 58° |
| 2026-05-08 01:59 | 42.77335 | -72.91887 | 35474 ft | 569 kts | 54° |
| 2026-05-08 01:59 | 42.79590 | -72.87468 | 35620 ft | 568 kts | 52° |
| 2026-05-08 01:59 | 42.81914 | -72.83115 | 35754 ft | 568 kts | 51° |
| 2026-05-08 01:59 | 42.84261 | -72.78783 | 35889 ft | 568 kts | 51° |
| 2026-05-08 02:00 | 42.86608 | -72.74452 | 36039 ft | 568 kts | 51° |
| 2026-05-08 02:00 | 42.88947 | -72.70121 | 36185 ft | 568 kts | 51° |
| 2026-05-08 02:00 | 42.91288 | -72.65769 | 36336 ft | 568 kts | 51° |
| 2026-05-08 02:00 | 42.93589 | -72.61479 | 36497 ft | 567 kts | 51° |
| 2026-05-08 02:01 | 42.95912 | -72.57141 | 36623 ft | 567 kts | 51° |
| 2026-05-08 02:01 | 42.98242 | -72.52779 | 36791 ft | 566 kts | 51° |
| 2026-05-08 02:01 | 43.02877 | -72.44083 | 36851 ft | 564 kts | 51° |
| 2026-05-08 02:02 | 43.07489 | -72.35405 | 36869 ft | 564 kts | 52° |
| 2026-05-08 02:02 | 43.12099 | -72.26708 | 36867 ft | 564 kts | 52° |
| 2026-05-08 02:03 | 43.16697 | -72.18004 | 36859 ft | 564 kts | 52° |
| 2026-05-08 02:03 | 43.21297 | -72.09275 | 36861 ft | 565 kts | 52° |
| 2026-05-08 02:04 | 43.25894 | -72.00523 | 36861 ft | 565 kts | 52° |
| 2026-05-08 02:04 | 43.30460 | -71.91804 | 36853 ft | 565 kts | 52° |
| 2026-05-08 02:05 | 43.35041 | -71.83030 | 36845 ft | 565 kts | 52° |
| 2026-05-08 02:05 | 43.39626 | -71.74221 | 36839 ft | 562 kts | 52° |
| 2026-05-08 02:06 | 43.44166 | -71.65474 | 36838 ft | 562 kts | 52° |
| 2026-05-08 02:06 | 43.48676 | -71.56760 | 36846 ft | 561 kts | 53° |
| 2026-05-08 02:07 | 43.53201 | -71.47990 | 36851 ft | 561 kts | 53° |
| 2026-05-08 02:07 | 43.57721 | -71.39202 | 36849 ft | 560 kts | 53° |
| 2026-05-08 02:08 | 43.62223 | -71.30423 | 36849 ft | 560 kts | 53° |
| 2026-05-08 02:08 | 43.66713 | -71.21642 | 36844 ft | 560 kts | 53° |
| 2026-05-08 02:09 | 43.71180 | -71.12878 | 36836 ft | 560 kts | 53° |
| 2026-05-08 02:09 | 43.75630 | -71.04123 | 36835 ft | 560 kts | 53° |
| 2026-05-08 02:10 | 43.80101 | -70.95302 | 36838 ft | 559 kts | 53° |
| 2026-05-08 02:10 | 43.84569 | -70.86458 | 36843 ft | 559 kts | 54° |
| 2026-05-08 02:11 | 43.89005 | -70.77649 | 36844 ft | 559 kts | 54° |
| 2026-05-08 02:11 | 43.93452 | -70.68794 | 36841 ft | 559 kts | 54° |
| 2026-05-08 02:12 | 43.97897 | -70.59916 | 36829 ft | 559 kts | 54° |
| 2026-05-08 02:12 | 44.02332 | -70.51030 | 36829 ft | 559 kts | 54° |
| 2026-05-08 02:13 | 44.06758 | -70.42135 | 36825 ft | 560 kts | 54° |
| 2026-05-08 02:13 | 44.11182 | -70.33215 | 36829 ft | 560 kts | 54° |
| 2026-05-08 02:14 | 44.15604 | -70.24274 | 36829 ft | 560 kts | 55° |
| 2026-05-08 02:14 | 44.19986 | -70.15387 | 36827 ft | 560 kts | 55° |
| 2026-05-08 02:15 | 44.24387 | -70.06431 | 36820 ft | 560 kts | 55° |
| 2026-05-08 02:15 | 44.28788 | -69.97449 | 36815 ft | 560 kts | 55° |
| 2026-05-08 02:16 | 44.33178 | -69.88463 | 36815 ft | 561 kts | 55° |
| 2026-05-08 02:16 | 44.37569 | -69.79446 | 36821 ft | 561 kts | 55° |
| 2026-05-08 02:17 | 44.41933 | -69.70457 | 36805 ft | 561 kts | 56° |
| 2026-05-08 02:17 | 44.46227 | -69.61584 | 36804 ft | 561 kts | 56° |
| 2026-05-08 02:18 | 44.50606 | -69.52508 | 36804 ft | 561 kts | 56° |
| 2026-05-08 02:18 | 44.54940 | -69.43496 | 36805 ft | 561 kts | 56° |
| 2026-05-08 02:19 | 44.59301 | -69.34399 | 36804 ft | 561 kts | 56° |
| 2026-05-08 02:19 | 44.63650 | -69.25299 | 36802 ft | 561 kts | 56° |
| 2026-05-08 02:20 | 44.67969 | -69.16234 | 36804 ft | 561 kts | 56° |
| 2026-05-08 02:20 | 44.72312 | -69.07088 | 36801 ft | 561 kts | 56° |
| 2026-05-08 02:21 | 44.76638 | -68.97949 | 36805 ft | 561 kts | 56° |
| 2026-05-08 02:21 | 44.80960 | -68.88789 | 36805 ft | 561 kts | 57° |
| 2026-05-08 02:22 | 44.85250 | -68.79670 | 36804 ft | 561 kts | 57° |
| 2026-05-08 02:22 | 44.89559 | -68.70482 | 36798 ft | 561 kts | 57° |
| 2026-05-08 02:23 | 44.93859 | -68.61283 | 36797 ft | 562 kts | 57° |
| 2026-05-08 02:23 | 44.98156 | -68.52058 | 36791 ft | 562 kts | 57° |
| 2026-05-08 02:24 | 45.02447 | -68.42819 | 36783 ft | 562 kts | 57° |
| 2026-05-08 02:24 | 45.06736 | -68.33553 | 36781 ft | 562 kts | 57° |
| 2026-05-08 02:25 | 45.11015 | -68.24279 | 36780 ft | 563 kts | 57° |
| 2026-05-08 02:25 | 45.15261 | -68.15046 | 36782 ft | 563 kts | 57° |